TAF LDSB 230607Z 2306/2406 VRB02KT 9999 FEW015 BKN035
                 TX17/2312Z TN10/2404Z
           TEMPO 2306/2313 RA
    PROB30 TEMPO 2309/2312 SHRA FEW020TCU BKN030
           BECMG 2313/2315 03012KT
    PROB30 TEMPO 2320/2406 03022G35KT=